Altus AFB, Oklahoma
Current Conditions -  °F | °C
As of 3:58 PM on Sunday 21 Dec 2014 (Local Time) from KLTS Reporting Station
Clear Clear  
Wind Chill: 56°   Ceiling: Unl
Heat Index: 56°   Visibility: 10mi
Dew Point: 47°   Wind: 23mph
Humidity: 71%   Direction: 130°SE
Pressure: 29.69"   Gusts: 25mph
Location:  34.65°N, 99.28°W
Report Text: KLTS 212158Z AUTO 13020G22KT 10SM CLR 14/08 A2969 RMK AO2 SLP053 T01360084 $
Loading
Personal Weather Stations






























Interactive Weather Map New forecast layout! Learn more

10-Day Weather Forecast

Advertisements
Track Severe Weather on mobile